Time;durP1;ratioP1;P1;durP2;ratioP2;P2;SDS_P1;SDS_P2;PMS_P1;PMS_P2;Temp;Humidity;BMP_temperature;BMP_pressure;BME280_temperature;BME280_humidity;BME280_pressure;Samples;Min_cycle;Max_cycle;Signal;HPM_P1;HPM_P2
2023/10/17 00:01:51;;;;;;;6.40;6.20;;;9.30;6.50;;;;;;5089737;28;20470;-81
2023/10/17 00:04:28;;;;;;;6.63;6.37;;;9.20;6.20;;;;;;5091616;28;20454;-82
2023/10/17 00:07:00;;;;;;;6.43;6.23;;;9.20;6.20;;;;;;5085868;28;20462;-82
2023/10/17 00:09:29;;;;;;;6.50;6.20;;;9.20;6.10;;;;;;5089673;28;20457;-82
2023/10/17 00:12:03;;;;;;;6.50;6.10;;;9.20;6.70;;;;;;5088847;28;20482;-82
2023/10/17 00:14:42;;;;;;;6.27;5.97;;;9.20;6.50;;;;;;5091618;28;22109;-83
2023/10/17 00:17:13;;;;;;;6.57;6.17;;;9.20;5.70;;;;;;5091115;28;20448;-82
2023/10/17 00:19:42;;;;;;;6.73;6.33;;;9.20;5.20;;;;;;5092284;28;20457;-82
2023/10/17 00:22:17;;;;;;;6.03;5.73;;;9.20;4.70;;;;;;5088589;28;20828;-83
2023/10/17 00:24:46;;;;;;;6.80;6.30;;;9.20;5.30;;;;;;5089820;28;20445;-82
2023/10/17 00:27:15;;;;;;;5.70;5.50;;;9.20;5.60;;;;;;5088908;28;20452;-82
2023/10/17 00:29:43;;;;;;;6.53;6.23;;;9.20;5.30;;;;;;5090225;28;20542;-82
2023/10/17 00:32:12;;;;;;;6.43;6.13;;;9.20;4.90;;;;;;5091444;28;20889;-82
2023/10/17 00:34:41;;;;;;;6.00;5.60;;;9.20;3.70;;;;;;5089253;28;20458;-82
2023/10/17 00:37:11;;;;;;;5.80;5.50;;;9.10;3.40;;;;;;5090416;28;20441;-82
2023/10/17 00:39:39;;;;;;;6.17;5.77;;;9.10;5.00;;;;;;5088096;28;20561;-82
2023/10/17 00:42:29;;;;;;;5.50;5.20;;;9.20;4.30;;;;;;5097334;28;20477;-82
2023/10/17 00:44:58;;;;;;;6.43;5.90;;;9.10;4.70;;;;;;5089137;28;20969;-81
2023/10/17 00:47:27;;;;;;;5.60;5.40;;;9.10;3.50;;;;;;5087365;28;20460;-81
2023/10/17 00:49:59;;;;;;;6.60;6.10;;;9.00;3.90;;;;;;5088858;28;20441;-82
2023/10/17 00:52:32;;;;;;;5.57;5.33;;;8.90;4.40;;;;;;5087328;28;20498;-82
2023/10/17 00:55:03;;;;;;;5.87;5.57;;;8.90;4.50;;;;;;5088311;28;20529;-82
2023/10/17 00:57:33;;;;;;;5.50;5.10;;;8.80;4.50;;;;;;5086860;28;20502;-82
2023/10/17 01:00:16;;;;;;;6.67;6.30;;;8.80;6.10;;;;;;5089749;28;20470;-82
2023/10/17 01:02:46;;;;;;;5.83;5.50;;;8.80;5.80;;;;;;5086103;28;20466;-82
2023/10/17 01:05:15;;;;;;;6.10;5.90;;;8.70;5.60;;;;;;5092447;28;20476;-83
2023/10/17 01:07:45;;;;;;;5.97;5.67;;;8.70;5.90;;;;;;5086370;28;20984;-82
2023/10/17 01:10:13;;;;;;;5.73;5.50;;;8.60;5.60;;;;;;5087056;28;20457;-83
2023/10/17 01:12:50;;;;;;;6.50;6.17;;;8.60;5.90;;;;;;5091122;28;20477;-82
2023/10/17 01:15:22;;;;;;;7.03;6.40;;;8.50;4.80;;;;;;5086012;28;20439;-82
2023/10/17 01:17:54;;;;;;;6.00;5.70;;;8.40;5.90;;;;;;5085858;28;20469;-83
2023/10/17 01:20:22;;;;;;;6.40;6.00;;;8.40;7.90;;;;;;5088751;28;20458;-82
2023/10/17 01:22:56;;;;;;;6.70;6.30;;;8.40;8.30;;;;;;5090223;28;20480;-82
2023/10/17 01:25:29;;;;;;;6.83;6.43;;;8.30;7.80;;;;;;5088642;28;20446;-82
2023/10/17 01:27:59;;;;;;;6.43;6.13;;;8.30;9.00;;;;;;5089553;28;20457;-82
2023/10/17 01:30:29;;;;;;;6.30;5.80;;;8.20;8.40;;;;;;5093227;28;21238;-82
2023/10/17 01:32:59;;;;;;;6.50;6.10;;;8.10;10.00;;;;;;5089643;28;20509;-82
2023/10/17 01:35:27;;;;;;;5.97;5.47;;;8.10;10.70;;;;;;5087731;28;20483;-83
2023/10/17 01:37:56;;;;;;;6.33;6.03;;;8.00;14.00;;;;;;5089145;28;20457;-82
2023/10/17 01:40:26;;;;;;;7.10;6.80;;;8.00;14.30;;;;;;5092261;28;20456;-83
2023/10/17 01:42:57;;;;;;;5.60;5.30;;;7.90;13.50;;;;;;5094378;28;20453;-83
2023/10/17 01:45:27;;;;;;;6.00;5.70;;;7.90;15.20;;;;;;5090704;28;20807;-83
2023/10/17 01:47:58;;;;;;;6.07;5.77;;;7.90;15.80;;;;;;5094086;28;20458;-82
2023/10/17 01:50:26;;;;;;;6.03;5.83;;;7.90;16.00;;;;;;5084603;28;20462;-83
2023/10/17 01:52:58;;;;;;;5.53;5.33;;;7.90;16.10;;;;;;5090936;28;20484;-82
2023/10/17 01:55:28;;;;;;;5.80;5.60;;;7.90;15.90;;;;;;5091103;28;20458;-83
2023/10/17 01:57:57;;;;;;;5.40;5.20;;;7.90;16.10;;;;;;5091366;28;20458;-83
2023/10/17 02:00:37;;;;;;;5.73;5.43;;;7.70;15.60;;;;;;5097829;28;20459;-83
2023/10/17 02:03:06;;;;;;;7.50;7.00;;;7.70;16.30;;;;;;5089699;28;21095;-83
2023/10/17 02:05:36;;;;;;;7.27;6.83;;;7.70;18.20;;;;;;5090724;28;21709;-83
2023/10/17 02:08:06;;;;;;;6.70;6.30;;;7.60;18.90;;;;;;5094035;28;20791;-82
2023/10/17 02:10:36;;;;;;;7.37;6.97;;;7.60;20.70;;;;;;5090774;28;20458;-82
2023/10/17 02:13:06;;;;;;;6.93;6.43;;;7.50;21.10;;;;;;5086562;28;20485;-83
2023/10/17 02:15:37;;;;;;;6.53;6.23;;;7.50;21.20;;;;;;5091352;28;20813;-82
2023/10/17 02:18:12;;;;;;;7.17;6.80;;;7.50;22.50;;;;;;5094530;28;20461;-81
2023/10/17 02:20:51;;;;;;;6.60;6.30;;;7.40;23.60;;;;;;5090335;28;20832;-81
2023/10/17 02:23:25;;;;;;;6.67;6.27;;;7.40;25.20;;;;;;5091579;28;21131;-81
2023/10/17 02:26:00;;;;;;;7.43;6.83;;;7.50;23.70;;;;;;5090939;28;20457;-81
2023/10/17 02:28:28;;;;;;;6.80;6.40;;;7.40;25.40;;;;;;5088430;28;20574;-82
2023/10/17 02:30:58;;;;;;;6.90;6.60;;;7.40;28.50;;;;;;5094565;28;20462;-81
2023/10/17 02:33:28;;;;;;;6.07;5.70;;;7.40;28.50;;;;;;5093209;28;20966;-81
2023/10/17 02:36:08;;;;;;;6.00;5.70;;;7.30;27.60;;;;;;5091925;28;20450;-81
2023/10/17 02:38:36;;;;;;;6.10;5.80;;;7.20;33.80;;;;;;5094646;28;20442;-81
2023/10/17 02:41:08;;;;;;;6.37;6.07;;;7.30;36.70;;;;;;5087751;27;20462;-81
2023/10/17 02:43:40;;;;;;;6.47;6.17;;;7.40;34.50;;;;;;5088949;28;20465;-82
2023/10/17 02:46:08;;;;;;;6.70;6.40;;;7.30;35.50;;;;;;5086667;28;20450;-82
2023/10/17 02:48:39;;;;;;;6.37;6.10;;;7.40;38.30;;;;;;5088447;28;20447;-83
2023/10/17 02:51:30;;;;;;;6.90;6.47;;;7.40;39.20;;;;;;5092320;28;20430;-82
2023/10/17 02:54:01;;;;;;;6.50;6.10;;;7.50;37.20;;;;;;5095035;28;20540;-82
2023/10/17 02:56:35;;;;;;;6.73;6.43;;;7.40;37.00;;;;;;5091773;28;20469;-81
2023/10/17 02:59:06;;;;;;;6.23;5.90;;;7.30;41.20;;;;;;5096576;27;20455;-81
2023/10/17 03:01:36;;;;;;;6.87;6.57;;;7.20;46.10;;;;;;5096328;28;20473;-81
2023/10/17 03:04:11;;;;;;;6.57;6.27;;;7.30;47.60;;;;;;5096229;28;20533;-81
2023/10/17 03:06:41;;;;;;;6.07;5.77;;;7.30;46.00;;;;;;5101555;28;20445;-80
2023/10/17 03:09:32;;;;;;;6.40;6.10;;;7.20;47.00;;;;;;5101102;28;21052;-81
2023/10/17 03:12:10;;;;;;;6.67;6.37;;;7.20;51.40;;;;;;5096526;28;20495;-80
2023/10/17 03:15:17;;;;;;;7.70;7.20;;;7.20;52.40;;;;;;5096546;28;20955;-81
2023/10/17 03:17:28;;;;;;;6.13;5.83;;;7.30;56.70;;;;;;5095465;28;20992;-81
2023/10/17 03:19:57;;;;;;;6.90;6.60;;;7.30;55.80;;;;;;5097849;28;20526;-81
2023/10/17 03:22:26;;;;;;;6.70;6.40;;;7.30;57.00;;;;;;5089862;28;20489;-82
2023/10/17 03:25:02;;;;;;;6.70;6.40;;;7.30;59.30;;;;;;5091776;28;20452;-82
2023/10/17 03:27:36;;;;;;;7.27;6.97;;;7.20;57.10;;;;;;5096686;28;20452;-82
2023/10/17 03:30:08;;;;;;;7.10;6.70;;;7.10;56.30;;;;;;5091410;28;20453;-81
2023/10/17 03:32:43;;;;;;;7.40;7.10;;;7.10;61.10;;;;;;5094208;28;20484;-81
2023/10/17 03:35:20;;;;;;;6.60;6.30;;;7.20;66.30;;;;;;5093048;28;20495;-82
2023/10/17 03:37:49;;;;;;;6.83;6.43;;;7.20;66.80;;;;;;5097418;28;20932;-82
2023/10/17 03:40:28;;;;;;;6.73;6.53;;;7.30;66.90;;;;;;5091931;28;20848;-81
2023/10/17 03:43:01;;;;;;;7.93;7.53;;;7.30;69.30;;;;;;5091069;28;21232;-81
2023/10/17 03:45:43;;;;;;;7.50;7.20;;;7.20;65.20;;;;;;5089438;28;20441;-81
2023/10/17 03:48:14;;;;;;;7.30;6.90;;;7.20;66.10;;;;;;5087209;28;20980;-83
2023/10/17 03:50:52;;;;;;;7.60;7.20;;;7.20;64.80;;;;;;5087724;28;20453;-82
2023/10/17 03:53:25;;;;;;;7.30;6.90;;;7.20;68.00;;;;;;5088355;28;20473;-83
2023/10/17 03:55:54;;;;;;;8.20;7.80;;;7.10;67.80;;;;;;5090865;28;20907;-82
2023/10/17 03:58:31;;;;;;;8.43;7.97;;;6.90;70.20;;;;;;5087486;28;20449;-84
2023/10/17 04:01:06;;;;;;;8.00;7.50;;;7.00;76.80;;;;;;5088001;28;20445;-83
2023/10/17 04:03:34;;;;;;;8.13;7.73;;;7.10;81.10;;;;;;5094908;28;20464;-83
2023/10/17 04:06:16;;;;;;;7.17;6.87;;;7.20;79.90;;;;;;5100209;28;20461;-83
2023/10/17 04:08:49;;;;;;;7.67;7.37;;;7.20;78.30;;;;;;5101899;28;20931;-83
2023/10/17 04:11:25;;;;;;;7.80;7.40;;;7.20;78.60;;;;;;5098479;28;20468;-83
2023/10/17 04:13:57;;;;;;;8.20;7.80;;;7.20;82.80;;;;;;5101049;28;20500;-83
2023/10/17 04:16:33;;;;;;;8.70;8.33;;;7.20;87.00;;;;;;5096541;28;20449;-77
2023/10/17 04:19:04;;;;;;;8.80;8.50;;;7.20;92.30;;;;;;5090079;28;20458;-79
2023/10/17 04:21:36;;;;;;;9.33;8.93;;;7.20;92.10;;;;;;5081217;28;20484;-78
2023/10/17 04:24:06;;;;;;;9.30;8.90;;;7.10;94.00;;;;;;5089756;28;20986;-82
2023/10/17 04:26:35;;;;;;;9.40;9.00;;;7.00;95.00;;;;;;5093145;28;20441;-81
2023/10/17 04:29:12;;;;;;;10.43;9.73;;;7.00;99.00;;;;;;5085902;28;20533;-81
2023/10/17 04:31:43;;;;;;;9.90;9.30;;;7.00;99.90;;;;;;5088955;28;20470;-82
2023/10/17 04:34:17;;;;;;;10.13;9.63;;;7.10;99.90;;;;;;5092554;28;20539;-79
2023/10/17 04:36:46;;;;;;;9.73;9.30;;;7.10;99.90;;;;;;5091274;28;20434;-82
2023/10/17 04:39:19;;;;;;;9.73;9.23;;;7.20;99.90;;;;;;5093822;28;20445;-81
2023/10/17 04:42:05;;;;;;;10.25;9.65;;;7.30;95.80;;;;;;5093127;28;20439;-81
2023/10/17 04:44:36;;;;;;;9.70;9.20;;;7.10;96.10;;;;;;5090866;28;20206;-81
2023/10/17 04:47:27;;;;;;;9.70;9.20;;;7.20;99.90;;;;;;5087459;28;20453;-81
2023/10/17 04:49:55;;;;;;;10.10;9.60;;;7.20;99.90;;;;;;5091375;28;21007;-82
2023/10/17 04:52:29;;;;;;;9.83;9.43;;;7.20;99.90;;;;;;5087704;28;20482;-82
2023/10/17 04:55:09;;;;;;;9.30;8.87;;;7.20;99.90;;;;;;5089605;28;20462;-82
2023/10/17 04:57:56;;;;;;;12.30;11.47;;;7.30;99.90;;;;;;5093433;28;20498;-81
2023/10/17 05:00:42;;;;;;;11.60;10.80;;;7.30;99.90;;;;;;5084458;28;20502;-81
2023/10/17 05:03:26;;;;;;;11.60;10.80;;;7.20;99.90;;;;;;5089744;28;20534;-82
2023/10/17 05:06:18;;;;;;;13.13;12.13;;;7.20;99.90;;;;;;5093627;28;20469;-81
2023/10/17 05:09:04;;;;;;;10.90;10.10;;;7.20;99.90;;;;;;5095893;28;20450;-81
2023/10/17 06:18:18;;;;;;;12.53;11.73;;;7.70;99.90;;;;;;5091312;28;20440;-80
2023/10/17 06:31:57;;;;;;;11.40;10.90;;;7.80;99.90;;;;;;5093122;28;20999;-80
2023/10/17 06:34:24;;;;;;;11.47;10.87;;;7.80;99.90;;;;;;5094138;28;20519;-81
2023/10/17 06:36:58;;;;;;;13.53;12.53;;;7.70;99.90;;;;;;5098863;28;20493;-81
2023/10/17 06:39:37;;;;;;;13.70;12.60;;;7.80;99.90;;;;;;5094667;28;20509;-81
2023/10/17 06:42:14;;;;;;;12.80;12.00;;;7.80;99.90;;;;;;5098193;27;20526;-81
2023/10/17 06:45:07;;;;;;;14.53;13.47;;;7.90;99.90;;;;;;5097265;28;20450;-81
2023/10/17 06:47:41;;;;;;;12.80;11.90;;;7.80;99.90;;;;;;5099354;28;20449;-81
2023/10/17 06:50:50;;;;;;;13.23;12.33;;;7.80;99.90;;;;;;5098380;28;20449;-81
2023/10/17 06:53:11;;;;;;;13.50;12.57;;;7.80;99.90;;;;;;5098245;28;20516;-81
2023/10/17 06:55:44;;;;;;;13.57;12.55;;;7.90;99.90;;;;;;5095024;28;20517;-81
2023/10/17 06:58:14;;;;;;;14.67;13.67;;;7.90;99.90;;;;;;5091473;28;20283;-81
2023/10/17 07:00:49;;;;;;;15.13;14.10;;;7.90;99.90;;;;;;5094210;27;20462;-81
2023/10/17 07:03:24;;;;;;;14.57;13.40;;;8.10;99.90;;;;;;5089331;27;20485;-81
2023/10/17 07:05:55;;;;;;;14.33;13.20;;;8.20;99.90;;;;;;5092803;27;20441;-82
2023/10/17 07:08:24;;;;;;;15.10;14.00;;;8.20;99.90;;;;;;5094000;28;20559;-82
2023/10/17 07:11:02;;;;;;;13.97;13.07;;;8.20;99.90;;;;;;5094020;28;20547;-82
2023/10/17 07:13:54;;;;;;;15.93;14.70;;;8.20;99.90;;;;;;5093021;28;26722;-82
2023/10/17 07:16:27;;;;;;;14.93;13.80;;;8.30;99.90;;;;;;5092168;28;20450;-82
2023/10/17 07:19:09;;;;;;;15.87;14.67;;;8.40;99.90;;;;;;5089926;28;21021;-82
2023/10/17 07:21:55;;;;;;;14.47;13.47;;;8.40;99.90;;;;;;5090748;27;20466;-83
2023/10/17 07:24:24;;;;;;;13.97;13.07;;;8.60;99.90;;;;;;5093615;28;20452;-82
2023/10/17 07:26:54;;;;;;;16.70;15.30;;;8.60;99.90;;;;;;5096661;28;20967;-82
2023/10/17 07:29:23;;;;;;;17.07;15.77;;;8.70;99.90;;;;;;5097531;28;20460;-82
2023/10/17 07:31:53;;;;;;;16.20;15.10;;;8.70;99.90;;;;;;5092549;28;20493;-82
2023/10/17 07:34:23;;;;;;;17.50;16.30;;;8.90;99.90;;;;;;5090715;28;20473;-82
2023/10/17 07:36:57;;;;;;;16.63;15.60;;;9.00;99.90;;;;;;5090575;28;20457;-82
2023/10/17 07:39:29;;;;;;;17.30;15.97;;;8.90;99.90;;;;;;5095854;28;20449;-82
2023/10/17 07:42:00;;;;;;;17.60;16.00;;;8.90;99.90;;;;;;5095864;28;20484;-82
2023/10/17 07:44:29;;;;;;;17.07;15.97;;;8.90;99.90;;;;;;5094258;28;20528;-82
2023/10/17 07:47:09;;;;;;;17.73;16.43;;;9.00;99.90;;;;;;5090053;28;21013;-82
2023/10/17 07:49:40;;;;;;;17.47;16.27;;;9.00;99.90;;;;;;5094268;28;20477;-83
2023/10/17 07:52:15;;;;;;;17.53;16.27;;;9.10;99.90;;;;;;5091112;28;20553;-82
2023/10/17 07:54:55;;;;;;;17.10;15.90;;;9.30;99.90;;;;;;5094398;28;20498;-82
2023/10/17 07:57:35;;;;;;;20.63;18.83;;;9.40;99.90;;;;;;5093369;28;20505;-82
2023/10/17 08:00:24;;;;;;;19.30;18.07;;;9.70;99.90;;;;;;5094046;28;21288;-83
2023/10/17 08:02:56;;;;;;;17.57;16.43;;;9.80;99.90;;;;;;5092749;28;20462;-81
2023/10/17 08:05:27;;;;;;;18.50;17.07;;;10.10;99.90;;;;;;5090983;28;20442;-83
2023/10/17 08:08:04;;;;;;;18.63;17.33;;;10.40;99.90;;;;;;5089033;28;20446;-82
2023/10/17 08:10:33;;;;;;;18.73;17.33;;;10.60;96.40;;;;;;5092689;28;20573;-83
2023/10/17 08:13:03;;;;;;;18.63;17.33;;;10.60;96.20;;;;;;5094021;28;20589;-83
2023/10/17 08:15:36;;;;;;;17.97;16.50;;;10.70;96.20;;;;;;5093250;28;20466;-83
2023/10/17 08:18:14;;;;;;;18.50;17.20;;;10.60;92.70;;;;;;5090067;28;20455;-83
2023/10/17 08:20:54;;;;;;;17.83;16.53;;;10.60;92.70;;;;;;5094374;28;20453;-82
2023/10/17 08:23:23;;;;;;;18.20;16.90;;;10.60;91.20;;;;;;5090920;28;20476;-83
2023/10/17 08:25:54;;;;;;;18.47;17.27;;;10.50;89.00;;;;;;5090242;28;20438;-83
2023/10/17 08:28:37;;;;;;;18.23;16.87;;;10.40;86.90;;;;;;5092708;28;20440;-83
2023/10/17 08:31:17;;;;;;;18.13;16.93;;;10.30;96.50;;;;;;5091955;28;20529;-84
2023/10/17 08:33:53;;;;;;;17.97;16.57;;;10.40;91.20;;;;;;5088223;28;20448;-82
2023/10/17 08:36:23;;;;;;;18.70;17.40;;;10.60;91.50;;;;;;5090298;28;20800;-83
2023/10/17 08:38:54;;;;;;;26.10;23.50;;;10.70;90.90;;;;;;5090462;28;20450;-83
2023/10/17 08:41:25;;;;;;;23.90;21.77;;;10.80;91.00;;;;;;5089912;28;20593;-83
2023/10/17 08:43:56;;;;;;;25.87;23.20;;;10.70;89.00;;;;;;5086377;28;20455;-83
2023/10/17 08:46:25;;;;;;;22.03;20.43;;;10.60;88.50;;;;;;5091895;28;20883;-83
2023/10/17 08:48:56;;;;;;;20.60;19.07;;;10.60;90.70;;;;;;5092316;28;20458;-83
2023/10/17 08:51:25;;;;;;;19.33;18.00;;;10.50;90.00;;;;;;5085759;28;20547;-83
2023/10/17 08:53:57;;;;;;;19.23;17.73;;;10.50;90.20;;;;;;5094685;28;20459;-82
2023/10/17 08:56:30;;;;;;;18.03;16.80;;;10.50;90.50;;;;;;5090464;28;20550;-83
2023/10/17 08:59:04;;;;;;;18.93;17.63;;;10.50;92.20;;;;;;5094077;28;20456;-82
2023/10/17 09:01:32;;;;;;;19.13;17.70;;;10.60;92.40;;;;;;5090894;28;20450;-82
2023/10/17 09:04:03;;;;;;;19.60;18.20;;;10.60;93.10;;;;;;5090843;28;20576;-82
2023/10/17 09:06:37;;;;;;;18.13;16.77;;;10.90;93.40;;;;;;5087512;28;20450;-83
2023/10/17 09:09:20;;;;;;;18.40;17.00;;;10.90;92.10;;;;;;5093136;28;20453;-83
2023/10/17 09:12:03;;;;;;;19.87;18.40;;;11.00;90.00;;;;;;5091404;28;20489;-83
2023/10/17 09:14:36;;;;;;;19.47;17.97;;;11.00;89.80;;;;;;5095331;28;21802;-83
2023/10/17 09:17:13;;;;;;;18.80;17.60;;;11.10;88.20;;;;;;5092356;28;20460;-82
2023/10/17 09:19:52;;;;;;;17.97;16.87;;;11.20;90.80;;;;;;5093658;28;20472;-83
2023/10/17 09:22:40;;;;;;;18.80;17.50;;;11.40;91.90;;;;;;5089370;28;20477;-83
2023/10/17 09:25:19;;;;;;;18.70;17.50;;;11.50;90.70;;;;;;5091262;28;20451;-83
2023/10/17 09:27:51;;;;;;;18.30;16.87;;;12.00;91.90;;;;;;5089017;28;20457;-83
2023/10/17 09:30:23;;;;;;;19.27;18.00;;;12.10;91.80;;;;;;5094213;28;20518;-83
2023/10/17 09:32:52;;;;;;;18.83;17.53;;;12.10;86.10;;;;;;5094968;28;20495;-83
2023/10/17 09:35:22;;;;;;;18.33;16.93;;;12.10;89.00;;;;;;5089957;28;20502;-83
2023/10/17 09:37:51;;;;;;;19.43;18.03;;;12.00;83.90;;;;;;5090774;28;20454;-82
2023/10/17 09:40:27;;;;;;;18.97;17.40;;;12.00;84.60;;;;;;5094217;28;20481;-82
2023/10/17 09:42:56;;;;;;;18.50;17.20;;;12.00;83.80;;;;;;5093210;28;20484;-83
2023/10/17 09:45:33;;;;;;;17.90;16.50;;;11.80;80.00;;;;;;5088074;28;20448;-83
2023/10/17 09:48:05;;;;;;;19.23;17.93;;;11.70;83.00;;;;;;5088778;28;20469;-81
2023/10/17 09:50:38;;;;;;;17.77;16.47;;;11.60;80.30;;;;;;5090534;28;20553;-83
2023/10/17 09:53:15;;;;;;;19.73;18.43;;;11.40;82.30;;;;;;5089628;28;20486;-82
2023/10/17 09:55:48;;;;;;;19.20;17.80;;;11.50;86.90;;;;;;5090903;28;20473;-83
2023/10/17 09:58:22;;;;;;;18.20;16.80;;;11.50;86.90;;;;;;5092865;28;21089;-83
2023/10/17 10:00:56;;;;;;;19.17;17.97;;;11.60;91.50;;;;;;5091164;28;20577;-83
2023/10/17 10:03:28;;;;;;;18.93;17.63;;;11.70;93.20;;;;;;5089121;28;21095;-83
2023/10/17 10:06:21;;;;;;;18.30;17.13;;;11.70;90.10;;;;;;5092132;28;20450;-83
2023/10/17 10:08:55;;;;;;;18.03;16.83;;;11.70;91.40;;;;;;5093186;28;20453;-82
2023/10/17 10:11:54;;;;;;;18.63;17.37;;;11.70;91.10;;;;;;5089828;28;20541;-83
2023/10/17 10:14:42;;;;;;;18.10;17.00;;;11.80;91.80;;;;;;5093762;28;20472;-83
2023/10/17 10:17:17;;;;;;;17.87;16.70;;;11.70;92.90;;;;;;5113149;27;21281;-83
2023/10/17 10:20:02;;;;;;;17.10;15.90;;;11.90;94.90;;;;;;5095421;27;20977;-84
2023/10/17 10:22:49;;;;;;;17.67;16.67;;;12.00;95.80;;;;;;5094894;27;20524;-83
2023/10/17 10:25:19;;;;;;;18.20;16.70;;;12.00;91.20;;;;;;5097300;28;20882;-83
2023/10/17 10:27:50;;;;;;;17.13;16.13;;;12.00;91.10;;;;;;5102149;28;20449;-83
2023/10/17 10:30:38;;;;;;;17.30;16.30;;;12.10;92.50;;;;;;5100233;28;20469;-83
2023/10/17 10:33:08;;;;;;;17.90;16.80;;;12.20;92.60;;;;;;5098003;28;20497;-83
2023/10/17 10:35:37;;;;;;;16.10;15.10;;;12.40;92.90;;;;;;5093553;28;20523;-83
2023/10/17 10:38:06;;;;;;;17.47;16.37;;;12.40;93.70;;;;;;5095213;28;20453;-84
2023/10/17 10:40:40;;;;;;;17.20;16.20;;;12.50;93.90;;;;;;5092773;27;20513;-83
2023/10/17 10:43:11;;;;;;;16.83;15.70;;;12.60;94.50;;;;;;5097727;28;20517;-83
2023/10/17 10:45:47;;;;;;;16.17;15.27;;;12.80;95.40;;;;;;5096286;28;20445;-83
2023/10/17 10:48:21;;;;;;;17.63;16.37;;;13.00;96.20;;;;;;5093293;28;20449;-84
2023/10/17 10:50:55;;;;;;;17.00;16.00;;;13.20;93.80;;;;;;5095695;28;20569;-83
2023/10/17 10:53:28;;;;;;;16.93;16.03;;;13.40;93.70;;;;;;5092465;28;20869;-82
2023/10/17 10:55:59;;;;;;;17.47;16.40;;;13.40;92.00;;;;;;5086353;28;20474;-84
2023/10/17 10:58:29;;;;;;;17.73;16.60;;;13.50;90.60;;;;;;5098299;28;21147;-83
2023/10/17 11:00:59;;;;;;;17.00;15.97;;;13.40;88.40;;;;;;5093578;28;20553;-83
2023/10/17 11:03:33;;;;;;;17.97;16.83;;;13.40;87.70;;;;;;5091511;28;21315;-82
2023/10/17 11:06:03;;;;;;;16.87;16.00;;;13.30;89.60;;;;;;5086382;28;20464;-84
2023/10/17 11:08:36;;;;;;;17.00;16.00;;;13.30;90.60;;;;;;5092521;28;20446;-83
2023/10/17 11:11:05;;;;;;;16.97;15.97;;;13.40;91.00;;;;;;5091848;28;20927;-81
2023/10/17 11:13:35;;;;;;;17.13;16.03;;;13.40;92.00;;;;;;5094791;28;20579;-83
2023/10/17 11:16:06;;;;;;;17.00;16.00;;;13.50;92.60;;;;;;5094410;27;21247;-82
2023/10/17 11:18:38;;;;;;;16.37;15.57;;;13.50;91.70;;;;;;5092210;28;20453;-82
2023/10/17 11:21:08;;;;;;;18.53;16.83;;;13.50;91.70;;;;;;5089360;28;20527;-82
2023/10/17 11:23:40;;;;;;;18.63;17.50;;;13.50;92.60;;;;;;5092504;28;20561;-82
2023/10/17 11:26:11;;;;;;;17.17;16.17;;;13.40;92.00;;;;;;5090206;28;20569;-83
2023/10/17 11:28:55;;;;;;;18.33;17.30;;;13.40;93.20;;;;;;5097255;28;20461;-82
2023/10/17 11:31:25;;;;;;;18.20;17.20;;;13.40;92.40;;;;;;5096134;28;21374;-83
2023/10/17 11:33:59;;;;;;;20.30;18.70;;;13.40;92.90;;;;;;5093540;28;20442;-82
2023/10/17 11:36:35;;;;;;;18.93;17.83;;;13.40;93.10;;;;;;5090709;27;20466;-82
2023/10/17 11:39:05;;;;;;;20.50;19.00;;;13.40;92.90;;;;;;5089982;28;20468;-82
2023/10/17 11:41:46;;;;;;;19.53;18.27;;;13.30;91.40;;;;;;5092729;28;20973;-82
2023/10/17 11:44:15;;;;;;;19.53;18.03;;;13.30;91.80;;;;;;5092575;28;20450;-82
2023/10/17 11:46:55;;;;;;;19.27;18.17;;;13.50;93.00;;;;;;5087955;27;20473;-83
2023/10/17 11:49:31;;;;;;;19.40;18.17;;;13.60;94.40;;;;;;5090459;28;20536;-83
2023/10/17 11:52:00;;;;;;;18.60;17.60;;;13.70;94.40;;;;;;5094184;28;20486;-82
2023/10/17 11:54:30;;;;;;;19.10;17.90;;;13.70;93.40;;;;;;5093084;28;20446;-82
2023/10/17 11:57:13;;;;;;;18.60;17.47;;;13.60;91.20;;;;;;5091330;28;20486;-83
2023/10/17 11:59:57;;;;;;;19.07;17.90;;;13.50;89.80;;;;;;5093485;28;20533;-83
2023/10/17 12:02:26;;;;;;;19.33;18.03;;;13.50;90.80;;;;;;5093095;28;20559;-83
2023/10/17 12:04:57;;;;;;;19.03;17.63;;;13.50;90.80;;;;;;5092899;27;20462;-83
2023/10/17 12:07:25;;;;;;;19.03;17.77;;;13.50;91.30;;;;;;5089367;28;20441;-83
2023/10/17 12:10:02;;;;;;;19.80;18.50;;;13.50;92.90;;;;;;5098315;28;20454;-83
2023/10/17 12:12:33;;;;;;;19.17;17.87;;;13.50;92.90;;;;;;5096036;28;20915;-83
2023/10/17 12:15:03;;;;;;;19.03;17.87;;;13.60;92.70;;;;;;5093838;28;20462;-85
2023/10/17 12:17:32;;;;;;;19.33;18.00;;;13.50;88.50;;;;;;5093600;28;21033;-83
2023/10/17 12:20:09;;;;;;;19.37;18.00;;;13.30;86.10;;;;;;5089843;28;20445;-83
2023/10/17 12:22:39;;;;;;;19.60;18.13;;;13.30;87.00;;;;;;5094177;28;20505;-83
2023/10/17 12:25:10;;;;;;;18.87;17.53;;;13.40;91.50;;;;;;5092237;28;20475;-84
2023/10/17 12:27:39;;;;;;;20.57;19.17;;;13.50;99.90;;;;;;5094320;28;20455;-83
2023/10/17 12:30:10;;;;;;;22.43;20.53;;;13.60;92.00;;;;;;5092124;28;20530;-82
2023/10/17 12:32:39;;;;;;;20.50;19.10;;;13.70;93.20;;;;;;5091957;28;21007;-82
2023/10/17 12:35:12;;;;;;;20.00;18.70;;;13.80;95.50;;;;;;5091955;28;20535;-84
2023/10/17 12:37:44;;;;;;;22.27;20.20;;;13.70;92.20;;;;;;5095550;27;20592;-83
2023/10/17 12:40:20;;;;;;;19.90;18.30;;;13.80;93.40;;;;;;5093609;28;20613;-83
2023/10/17 12:42:49;;;;;;;19.90;18.50;;;13.80;92.00;;;;;;5090580;28;21201;-82
2023/10/17 12:45:19;;;;;;;21.53;19.83;;;13.80;91.30;;;;;;5089750;28;20481;-84
2023/10/17 12:47:49;;;;;;;22.63;20.70;;;13.70;90.20;;;;;;5093943;28;20445;-84
2023/10/17 12:50:19;;;;;;;18.30;17.20;;;13.70;89.70;;;;;;5092476;28;20457;-81
2023/10/17 12:52:47;;;;;;;18.40;17.20;;;13.70;88.30;;;;;;5095409;28;20484;-83
2023/10/17 12:55:19;;;;;;;18.70;17.57;;;13.50;84.90;;;;;;5092874;28;20794;-83
2023/10/17 12:57:47;;;;;;;17.23;16.23;;;13.60;87.00;;;;;;5090409;28;20482;-82
2023/10/17 13:00:16;;;;;;;18.00;16.80;;;13.50;86.30;;;;;;5093297;28;20536;-83
2023/10/17 13:02:47;;;;;;;17.83;16.73;;;13.50;88.90;;;;;;5093138;28;20461;-83
2023/10/17 13:05:15;;;;;;;23.47;21.47;;;13.50;87.40;;;;;;5090512;28;20450;-83
2023/10/17 13:07:45;;;;;;;18.93;17.47;;;13.50;90.10;;;;;;5089684;28;20596;-83
2023/10/17 13:10:13;;;;;;;18.17;17.10;;;13.50;90.90;;;;;;5098404;28;20449;-82
2023/10/17 13:12:41;;;;;;;19.23;17.83;;;13.50;91.30;;;;;;5097378;28;21155;-82
2023/10/17 13:15:14;;;;;;;18.97;17.80;;;13.40;90.30;;;;;;5091756;28;20545;-82
2023/10/17 13:17:44;;;;;;;20.07;18.30;;;13.40;99.90;;;;;;5093179;28;20481;-82
2023/10/17 13:20:14;;;;;;;18.97;17.63;;;13.50;91.50;;;;;;5096174;28;20947;-82
2023/10/17 13:23:04;;;;;;;19.27;17.77;;;13.40;90.00;;;;;;5094789;28;20461;-83
2023/10/17 13:25:36;;;;;;;19.27;17.77;;;13.40;91.10;;;;;;5097007;28;20484;-82
2023/10/17 13:28:04;;;;;;;19.80;18.40;;;13.50;92.40;;;;;;5094922;28;20873;-82
2023/10/17 13:30:32;;;;;;;22.70;20.73;;;13.50;93.50;;;;;;5097378;28;20489;-82
2023/10/17 13:33:01;;;;;;;19.03;17.47;;;13.50;94.10;;;;;;5095335;28;20467;-82
2023/10/17 13:35:30;;;;;;;18.67;17.37;;;13.60;95.20;;;;;;5099893;28;20445;-83
2023/10/17 13:37:59;;;;;;;17.50;16.40;;;13.60;94.90;;;;;;5098713;27;20484;-84
2023/10/17 13:40:32;;;;;;;17.33;16.13;;;13.60;94.80;;;;;;5097420;28;20535;-83
2023/10/17 13:43:01;;;;;;;18.90;17.40;;;13.70;96.20;;;;;;5098375;27;20500;-85
2023/10/17 13:45:35;;;;;;;19.33;17.77;;;13.70;95.70;;;;;;5092010;28;20515;-85
2023/10/17 13:48:04;;;;;;;22.20;19.93;;;13.70;96.40;;;;;;5100581;28;20446;-83
2023/10/17 13:50:32;;;;;;;17.50;16.40;;;13.80;96.70;;;;;;5097088;28;20446;-84
2023/10/17 13:53:06;;;;;;;18.00;16.80;;;13.80;95.00;;;;;;5097151;27;20551;-82
2023/10/17 13:55:38;;;;;;;18.53;17.30;;;13.70;96.60;;;;;;5096142;28;20959;-83
2023/10/17 13:58:06;;;;;;;17.70;16.50;;;13.80;97.20;;;;;;5086554;28;21001;-84
2023/10/17 14:00:43;;;;;;;18.57;17.20;;;13.90;97.50;;;;;;5094209;28;20824;-82
2023/10/17 14:03:13;;;;;;;18.80;17.50;;;13.80;94.90;;;;;;5095412;27;20450;-83
2023/10/17 14:05:44;;;;;;;17.83;16.63;;;13.90;97.40;;;;;;5086284;28;20464;-83
2023/10/17 14:08:13;;;;;;;18.03;16.67;;;14.00;96.90;;;;;;5091113;28;20445;-84
2023/10/17 14:10:46;;;;;;;17.07;15.97;;;14.00;97.80;;;;;;5096520;28;20446;-86
2023/10/17 14:13:16;;;;;;;17.30;16.20;;;14.00;97.80;;;;;;5095376;28;20548;-83
2023/10/17 14:15:44;;;;;;;17.37;16.33;;;14.10;97.90;;;;;;5091959;28;20453;-83
2023/10/17 14:18:14;;;;;;;18.10;16.80;;;14.20;98.50;;;;;;5099686;28;20482;-85
2023/10/17 14:21:04;;;;;;;16.80;15.80;;;14.10;98.50;;;;;;5098722;28;20438;-84
2023/10/17 14:23:45;;;;;;;17.80;16.50;;;14.10;97.90;;;;;;5096117;28;20553;-84
2023/10/17 14:26:18;;;;;;;18.70;17.40;;;14.00;98.20;;;;;;5094987;28;20454;-83
2023/10/17 14:28:45;;;;;;;17.80;16.70;;;14.00;97.90;;;;;;5095526;28;20454;-85
2023/10/17 14:31:15;;;;;;;18.13;17.07;;;14.00;98.10;;;;;;5099071;28;20445;-84